createdAt,value
2023-10-30T00:02:11.136Z,5.05
2023-10-30T00:04:38.737Z,4.47
2023-10-30T00:07:06.185Z,4.60
2023-10-30T00:09:34.035Z,3.28
2023-10-30T00:12:02.511Z,3.90
2023-10-30T00:14:29.888Z,4.43
2023-10-30T00:16:57.124Z,4.15
2023-10-30T00:19:24.458Z,5.25
2023-10-30T00:21:51.592Z,4.38
2023-10-30T00:24:18.788Z,2.58
2023-10-30T00:26:46.428Z,2.63
2023-10-30T00:29:14.195Z,3.30
2023-10-30T00:31:41.308Z,4.65
2023-10-30T00:34:11.755Z,5.43
2023-10-30T00:36:39.397Z,4.10
2023-10-30T00:39:07.373Z,7.40
2023-10-30T00:41:34.684Z,5.95
2023-10-30T00:44:01.771Z,5.40
2023-10-30T00:46:28.893Z,5.60
2023-10-30T00:48:56.609Z,6.07
2023-10-30T00:51:23.860Z,5.93
2023-10-30T00:53:51.092Z,4.38
2023-10-30T00:56:18.331Z,7.25
2023-10-30T00:58:45.521Z,4.57
2023-10-30T01:01:14.442Z,6.20
2023-10-30T01:03:41.928Z,4.75
2023-10-30T01:06:09.225Z,7.43
2023-10-30T01:08:36.730Z,4.60
2023-10-30T01:11:04.082Z,4.93
2023-10-30T01:13:34.042Z,3.75
2023-10-30T01:16:01.335Z,3.78
2023-10-30T01:18:28.497Z,5.47
2023-10-30T01:20:56.449Z,3.70
2023-10-30T01:23:23.915Z,3.63
2023-10-30T01:25:51.319Z,4.15
2023-10-30T01:28:18.511Z,3.55
2023-10-30T01:30:45.780Z,1.85
2023-10-30T01:33:13.003Z,2.60
2023-10-30T01:35:40.348Z,3.92
2023-10-30T01:38:07.629Z,6.20
2023-10-30T01:40:34.865Z,2.50
2023-10-30T01:43:09.908Z,6.10
2023-10-30T01:45:37.171Z,3.35
2023-10-30T01:48:04.983Z,3.55
2023-10-30T01:50:33.069Z,3.40
2023-10-30T01:53:00.464Z,2.35
2023-10-30T01:55:27.857Z,2.13
2023-10-30T01:57:55.794Z,2.63
2023-10-30T02:00:23.370Z,3.53
2023-10-30T02:02:52.266Z,3.30
2023-10-30T02:05:19.989Z,1.67
2023-10-30T02:07:47.269Z,1.83
2023-10-30T02:10:14.869Z,2.85
2023-10-30T02:12:49.151Z,2.10
2023-10-30T02:15:16.432Z,1.40
2023-10-30T02:17:44.517Z,1.25
2023-10-30T02:20:15.113Z,1.45
2023-10-30T02:22:42.264Z,2.55
2023-10-30T02:25:09.981Z,2.22
2023-10-30T02:27:37.195Z,1.52
2023-10-30T02:30:05.029Z,1.80
2023-10-30T02:32:32.346Z,2.05
2023-10-30T02:34:59.445Z,1.63
2023-10-30T02:37:26.564Z,1.58
2023-10-30T02:39:53.688Z,2.03
2023-10-30T02:42:20.893Z,1.95
2023-10-30T02:44:48.042Z,0.93
2023-10-30T02:47:15.255Z,1.75
2023-10-30T02:49:42.513Z,2.47
2023-10-30T02:52:09.829Z,2.28
2023-10-30T02:54:37.025Z,2.15
2023-10-30T02:57:04.505Z,3.63
2023-10-30T02:59:31.770Z,1.60
2023-10-30T03:02:00.041Z,1.38
2023-10-30T03:04:27.468Z,1.25
2023-10-30T03:06:54.821Z,2.33
2023-10-30T03:09:22.067Z,1.77
2023-10-30T03:11:49.507Z,1.70
2023-10-30T03:14:17.448Z,2.28
2023-10-30T03:16:45.199Z,1.50
2023-10-30T03:19:12.780Z,1.27
2023-10-30T03:21:40.560Z,1.23
2023-10-30T03:24:08.697Z,2.72
2023-10-30T03:26:36.566Z,1.95
2023-10-30T03:29:03.919Z,2.00
2023-10-30T03:31:31.253Z,2.22
2023-10-30T03:33:58.823Z,0.68
2023-10-30T03:36:26.276Z,0.85
2023-10-30T03:38:53.772Z,0.75
2023-10-30T03:41:21.142Z,0.70
2023-10-30T03:43:49.198Z,2.05
2023-10-30T03:46:16.609Z,1.27
2023-10-30T03:48:43.986Z,1.30
2023-10-30T03:51:11.343Z,1.83
2023-10-30T03:53:39.608Z,1.77
2023-10-30T03:56:10.241Z,0.80
2023-10-30T03:58:37.706Z,0.98
2023-10-30T04:01:09.250Z,2.15
2023-10-30T04:03:37.612Z,1.10
2023-10-30T04:06:05.935Z,2.28
2023-10-30T04:08:33.471Z,0.73
2023-10-30T04:11:01.187Z,2.28
2023-10-30T04:13:48.383Z,2.13
2023-10-30T04:16:22.139Z,2.35
2023-10-30T04:19:09.932Z,3.15
2023-10-30T04:21:37.510Z,0.82
2023-10-30T04:24:05.225Z,3.15
2023-10-30T04:26:34.148Z,1.60
2023-10-30T04:29:01.634Z,1.92
2023-10-30T04:31:30.002Z,1.70
2023-10-30T04:33:57.632Z,2.80
2023-10-30T04:36:25.443Z,1.52
2023-10-30T04:38:52.849Z,3.28
2023-10-30T04:41:20.560Z,2.17
2023-10-30T04:43:47.954Z,1.60
2023-10-30T04:46:15.601Z,4.25
2023-10-30T04:48:43.088Z,1.58
2023-10-30T04:51:14.413Z,1.33
2023-10-30T04:53:45.396Z,2.25
2023-10-30T04:56:32.575Z,2.10
2023-10-30T04:59:19.666Z,3.53
2023-10-30T05:01:50.497Z,1.33
2023-10-30T05:04:29.627Z,1.33
2023-10-30T05:07:16.840Z,2.67
2023-10-30T05:09:45.910Z,1.65
2023-10-30T05:12:13.917Z,1.00
2023-10-30T05:14:53.304Z,0.90
2023-10-30T05:17:20.728Z,1.85
2023-10-30T05:19:48.220Z,1.58
2023-10-30T05:22:15.671Z,1.25
2023-10-30T05:24:42.889Z,1.65
2023-10-30T05:27:10.130Z,2.97
2023-10-30T05:29:37.601Z,2.85
2023-10-30T05:32:07.746Z,1.88
2023-10-30T05:34:40.735Z,1.67
2023-10-30T05:37:10.812Z,1.33
2023-10-30T05:39:38.118Z,2.38
2023-10-30T05:42:05.739Z,1.58
2023-10-30T05:44:33.494Z,2.83
2023-10-30T05:47:00.614Z,1.52
2023-10-30T05:49:28.432Z,1.73
2023-10-30T05:51:56.880Z,2.20
2023-10-30T05:54:24.312Z,2.08
2023-10-30T05:56:51.456Z,0.88
2023-10-30T05:59:19.000Z,1.88
2023-10-30T06:01:46.233Z,1.70
2023-10-30T06:04:14.203Z,2.17
2023-10-30T06:06:41.935Z,1.95
2023-10-30T06:09:09.566Z,4.78
2023-10-30T06:11:36.777Z,2.28
2023-10-30T06:14:03.983Z,2.70
2023-10-30T06:16:31.217Z,6.38
2023-10-30T06:18:58.637Z,4.75
2023-10-30T06:21:25.904Z,5.05
2023-10-30T06:23:53.146Z,5.43
2023-10-30T06:26:20.299Z,2.53
2023-10-30T06:28:47.896Z,3.28
2023-10-30T06:31:16.248Z,3.15
2023-10-30T06:33:44.038Z,1.55
2023-10-30T06:36:11.680Z,2.05
2023-10-30T06:38:39.434Z,1.17
2023-10-30T06:41:07.370Z,2.70
2023-10-30T06:43:35.000Z,2.55
2023-10-30T06:46:05.816Z,2.65
2023-10-30T06:48:33.699Z,2.10
2023-10-30T06:51:01.602Z,2.13
2023-10-30T06:53:28.812Z,2.85
2023-10-30T06:55:55.988Z,2.30
2023-10-30T06:58:23.187Z,2.70
2023-10-30T07:00:51.043Z,2.30
2023-10-30T07:03:18.341Z,1.38
2023-10-30T07:05:45.547Z,1.52
2023-10-30T07:08:12.759Z,2.90
2023-10-30T07:10:39.924Z,1.40
2023-10-30T07:13:07.155Z,1.27
2023-10-30T07:15:34.483Z,1.55
2023-10-30T07:18:01.826Z,1.98
2023-10-30T07:20:29.058Z,1.90
2023-10-30T07:22:56.375Z,1.13
2023-10-30T07:25:24.320Z,1.40
2023-10-30T07:27:51.580Z,1.35
2023-10-30T07:30:18.871Z,1.30
2023-10-30T07:32:46.536Z,1.83
2023-10-30T07:35:13.886Z,1.35
2023-10-30T07:37:41.184Z,1.27
2023-10-30T07:40:08.928Z,1.48
2023-10-30T07:42:36.298Z,1.77
2023-10-30T07:45:03.798Z,2.65
2023-10-30T07:47:43.406Z,1.52
2023-10-30T07:50:12.182Z,2.25
2023-10-30T07:52:42.388Z,6.55
2023-10-30T07:55:10.937Z,2.35
2023-10-30T07:57:38.243Z,2.53
2023-10-30T08:00:06.378Z,3.72
2023-10-30T08:02:33.983Z,2.88
2023-10-30T08:05:01.121Z,1.27
2023-10-30T08:07:28.349Z,3.72
2023-10-30T08:09:56.803Z,2.00
2023-10-30T08:12:25.052Z,3.58
2023-10-30T08:14:55.081Z,2.92
2023-10-30T08:17:22.307Z,6.50
2023-10-30T08:19:49.614Z,2.03
2023-10-30T08:22:16.860Z,1.90
2023-10-30T08:24:44.309Z,1.63
2023-10-30T08:27:11.844Z,1.88
2023-10-30T08:29:39.070Z,1.90
2023-10-30T08:32:06.580Z,2.17
2023-10-30T08:34:33.758Z,4.00
2023-10-30T08:37:01.177Z,3.15
2023-10-30T08:39:28.533Z,2.28
2023-10-30T08:41:55.794Z,3.60
2023-10-30T08:44:26.333Z,2.05
2023-10-30T08:46:54.930Z,4.95
2023-10-30T08:49:22.289Z,2.15
2023-10-30T08:51:57.597Z,0.95
2023-10-30T08:54:31.232Z,3.28
2023-10-30T08:57:11.196Z,2.28
2023-10-30T08:59:42.200Z,3.05
2023-10-30T09:02:09.571Z,3.08
2023-10-30T09:04:37.816Z,2.33
2023-10-30T09:07:05.757Z,2.50
2023-10-30T09:09:34.473Z,1.30
2023-10-30T09:12:01.896Z,1.30
2023-10-30T09:14:29.490Z,2.38
2023-10-30T09:16:56.819Z,2.33
2023-10-30T09:19:25.497Z,2.72
2023-10-30T09:21:55.547Z,2.13
2023-10-30T09:24:24.928Z,2.10
2023-10-30T09:26:52.381Z,2.40
2023-10-30T09:29:19.916Z,2.55
2023-10-30T09:31:47.789Z,3.50
2023-10-30T09:34:15.246Z,1.80
2023-10-30T09:37:02.491Z,3.35
2023-10-30T09:39:41.626Z,1.85
2023-10-30T09:42:15.772Z,2.85
2023-10-30T09:44:44.031Z,0.60
2023-10-30T09:47:12.632Z,0.75
2023-10-30T09:49:41.294Z,1.05
2023-10-30T09:52:09.889Z,1.48
2023-10-30T10:07:39.427Z,7.80
2023-10-30T10:10:26.609Z,5.25
2023-10-30T10:13:13.933Z,8.02
2023-10-30T10:16:02.891Z,2.58
2023-10-30T10:18:50.193Z,4.95
2023-10-30T10:21:59.167Z,2.72
2023-10-30T10:24:47.446Z,2.85
2023-10-30T10:27:34.933Z,4.40
2023-10-30T10:30:26.757Z,3.47
2023-10-30T10:33:14.135Z,2.17
2023-10-30T10:36:04.169Z,1.25
2023-10-30T10:39:00.954Z,1.85
2023-10-30T10:41:49.663Z,1.95
2023-10-30T10:44:36.808Z,1.75
2023-10-30T10:47:24.998Z,2.45
2023-10-30T10:50:12.206Z,4.60
2023-10-30T10:53:00.481Z,5.47
2023-10-30T10:55:49.460Z,4.72
2023-10-30T10:58:42.640Z,2.80
2023-10-30T11:01:36.550Z,4.15
2023-10-30T11:04:24.803Z,2.13
2023-10-30T11:07:15.312Z,2.20
2023-10-30T11:10:10.051Z,1.40
2023-10-30T11:13:00.411Z,2.70
2023-10-30T11:16:25.746Z,2.80
2023-10-30T11:19:13.066Z,8.45
2023-10-30T11:22:03.415Z,7.95
2023-10-30T11:24:50.742Z,10.55
2023-10-30T11:27:38.206Z,10.85
2023-10-30T11:30:25.389Z,7.32
2023-10-30T11:33:23.025Z,4.45
2023-10-30T11:36:16.371Z,10.88
2023-10-30T11:39:03.771Z,7.00
2023-10-30T11:41:54.247Z,7.07
2023-10-30T11:44:41.567Z,21.23
2023-10-30T11:47:28.907Z,15.90
2023-10-30T11:50:19.604Z,21.60
2023-10-30T11:53:11.926Z,4.97
2023-10-30T11:55:59.430Z,12.52
2023-10-30T11:58:46.931Z,24.67
2023-10-30T12:01:34.960Z,27.05
2023-10-30T12:04:26.850Z,15.75
2023-10-30T12:07:16.945Z,7.38
2023-10-30T12:10:05.315Z,12.77
2023-10-30T12:12:52.602Z,4.47
2023-10-30T12:15:41.691Z,3.17
2023-10-30T12:18:29.424Z,2.13
2023-10-30T12:21:17.400Z,2.55
2023-10-30T12:24:04.984Z,5.35
2023-10-30T12:26:52.100Z,8.45
2023-10-30T12:29:39.241Z,7.53
2023-10-30T12:32:28.919Z,8.32
2023-10-30T12:35:16.089Z,4.72
2023-10-30T12:38:16.331Z,5.60
2023-10-30T12:41:07.835Z,2.55
2023-10-30T12:43:57.163Z,3.22
2023-10-30T12:46:44.736Z,6.03
2023-10-30T12:49:32.230Z,3.58
2023-10-30T12:52:19.386Z,4.68
2023-10-30T12:55:07.507Z,6.10
2023-10-30T12:57:54.744Z,10.18
2023-10-30T13:00:42.012Z,6.85
2023-10-30T13:03:32.350Z,7.43
2023-10-30T13:06:23.010Z,3.08
2023-10-30T13:09:10.660Z,5.32
2023-10-30T13:11:58.040Z,7.00
2023-10-30T13:14:45.262Z,7.25
2023-10-30T13:17:32.441Z,7.60
2023-10-30T13:20:19.549Z,6.32
2023-10-30T13:23:07.277Z,10.23
2023-10-30T13:25:54.433Z,14.48
2023-10-30T13:28:41.614Z,21.67
2023-10-30T13:31:28.753Z,6.47
2023-10-30T13:34:17.770Z,9.45
2023-10-30T13:37:05.136Z,4.72
2023-10-30T13:39:52.419Z,9.05
2023-10-30T13:42:39.586Z,6.70
2023-10-30T13:45:26.848Z,8.05
2023-10-30T13:48:14.085Z,8.10
2023-10-30T13:51:01.318Z,3.45
2023-10-30T13:53:51.391Z,4.93
2023-10-30T13:56:38.860Z,4.20
2023-10-30T13:59:25.918Z,2.92
2023-10-30T14:02:13.763Z,4.35
2023-10-30T14:05:00.868Z,10.75
2023-10-30T14:07:48.145Z,3.35
2023-10-30T14:10:35.265Z,5.60
2023-10-30T14:13:22.432Z,3.47
2023-10-30T14:16:10.535Z,2.30
2023-10-30T14:18:57.821Z,7.90
2023-10-30T14:21:46.178Z,7.05
2023-10-30T14:24:33.434Z,11.35
2023-10-30T14:27:20.632Z,11.60
2023-10-30T14:30:08.430Z,10.55
2023-10-30T14:32:55.841Z,8.70
2023-10-30T14:35:43.215Z,7.55
2023-10-30T14:38:30.351Z,9.80
2023-10-30T14:41:17.549Z,11.85
2023-10-30T14:44:05.716Z,8.73
2023-10-30T14:46:53.420Z,7.50
2023-10-30T14:49:40.612Z,7.28
2023-10-30T14:52:27.732Z,13.35
2023-10-30T14:55:15.774Z,6.82
2023-10-30T14:58:02.972Z,6.07
2023-10-30T15:00:50.371Z,6.45
2023-10-30T15:03:37.789Z,6.20
2023-10-30T15:06:24.960Z,6.53
2023-10-30T15:09:14.115Z,5.63
2023-10-30T15:12:01.384Z,5.22
2023-10-30T15:14:48.731Z,6.55
2023-10-30T15:17:36.853Z,4.45
2023-10-30T15:20:24.351Z,3.45
2023-10-30T15:23:11.619Z,9.02
2023-10-30T15:25:58.790Z,6.22
2023-10-30T15:28:46.049Z,5.63
2023-10-30T15:31:33.216Z,4.45
2023-10-30T15:34:20.562Z,4.55
2023-10-30T15:37:07.859Z,6.15
2023-10-30T15:39:55.110Z,5.75
2023-10-30T15:42:42.438Z,7.30
2023-10-30T15:45:29.674Z,7.07
2023-10-30T15:48:16.955Z,6.00
2023-10-30T15:51:04.471Z,8.05
2023-10-30T15:59:36.760Z,6.43
2023-10-30T16:02:25.643Z,4.30
2023-10-30T16:05:14.641Z,6.63
2023-10-30T16:08:01.966Z,4.80
2023-10-30T16:10:49.172Z,4.72
2023-10-30T16:16:27.374Z,4.82
2023-10-30T16:19:15.977Z,3.88
2023-10-30T16:22:04.011Z,2.70
2023-10-30T16:24:51.213Z,3.78
2023-10-30T16:27:38.340Z,6.10
2023-10-30T16:30:25.591Z,10.40
2023-10-30T16:33:12.730Z,5.45
2023-10-30T16:35:59.986Z,5.10
2023-10-30T16:38:47.144Z,4.43
2023-10-30T16:41:34.367Z,4.57
2023-10-30T16:44:21.586Z,6.82
2023-10-30T16:47:08.765Z,4.65
2023-10-30T16:49:55.947Z,3.13
2023-10-30T16:52:43.201Z,4.47
2023-10-30T16:55:30.573Z,3.13
2023-10-30T16:58:19.032Z,2.47
2023-10-30T17:01:06.481Z,6.50
2023-10-30T17:03:54.103Z,7.40
2023-10-30T17:06:41.300Z,4.30
2023-10-30T17:09:28.572Z,3.45
2023-10-30T17:12:16.455Z,2.83
2023-10-30T17:15:03.778Z,3.50
2023-10-30T17:17:51.015Z,3.70
2023-10-30T17:20:41.077Z,5.22
2023-10-30T17:23:28.199Z,3.53
2023-10-30T17:26:15.427Z,4.93
2023-10-30T17:29:02.643Z,4.68
2023-10-30T17:31:49.850Z,4.15
2023-10-30T17:34:39.467Z,5.72
2023-10-30T17:37:28.060Z,2.92
2023-10-30T17:40:15.292Z,8.68
2023-10-30T17:43:02.400Z,4.13
2023-10-30T17:45:49.673Z,3.75
2023-10-30T17:48:36.798Z,5.68
2023-10-30T17:51:24.090Z,5.72
2023-10-30T17:54:11.213Z,7.43
2023-10-30T17:56:58.438Z,4.93
2023-10-30T17:59:45.568Z,8.10
2023-10-30T18:02:33.105Z,3.75
2023-10-30T18:05:20.970Z,15.05
2023-10-30T18:08:08.264Z,7.75
2023-10-30T18:10:55.736Z,11.13
2023-10-30T18:13:42.953Z,10.43
2023-10-30T18:16:30.268Z,13.63
2023-10-30T18:19:18.303Z,11.93
2023-10-30T18:22:05.525Z,5.03
2023-10-30T18:24:54.259Z,5.72
2023-10-30T18:27:41.780Z,5.65
2023-10-30T18:30:28.893Z,4.82
2023-10-30T18:33:16.186Z,5.20
2023-10-30T18:36:03.497Z,3.92
2023-10-30T18:38:50.730Z,5.90
2023-10-30T18:41:38.044Z,6.82
2023-10-30T18:44:25.187Z,6.10
2023-10-30T18:47:12.353Z,5.10
2023-10-30T18:49:59.700Z,4.22
2023-10-30T18:52:46.967Z,5.10
2023-10-30T18:55:34.602Z,2.97
2023-10-30T18:58:21.949Z,3.85
2023-10-30T19:01:10.283Z,4.65
2023-10-30T19:03:57.500Z,3.85
2023-10-30T19:06:44.692Z,4.00
2023-10-30T19:09:31.857Z,5.63
2023-10-30T19:12:19.015Z,4.53
2023-10-30T19:15:06.571Z,4.03
2023-10-30T19:17:53.993Z,4.43
2023-10-30T19:20:41.309Z,3.08
2023-10-30T19:23:28.494Z,2.75
2023-10-30T19:26:15.730Z,2.95
2023-10-30T19:29:02.908Z,4.82
2023-10-30T19:31:50.120Z,4.75
2023-10-30T19:34:37.736Z,3.00
2023-10-30T19:37:26.402Z,4.68
2023-10-30T19:40:14.531Z,5.43
2023-10-30T19:43:01.689Z,4.43
2023-10-30T19:45:48.943Z,3.65
2023-10-30T19:48:36.085Z,4.03
2023-10-30T19:51:23.272Z,4.47
2023-10-30T19:54:10.724Z,3.92
2023-10-30T19:56:57.957Z,3.58
2023-10-30T19:59:45.830Z,5.65
2023-10-30T20:02:33.673Z,3.50
2023-10-30T20:05:20.850Z,3.63
2023-10-30T20:08:08.153Z,5.78
2023-10-30T20:10:55.739Z,3.83
2023-10-30T20:13:43.026Z,6.65
2023-10-30T20:16:30.154Z,4.78
2023-10-30T20:19:17.451Z,11.70
2023-10-30T20:22:05.076Z,19.42
2023-10-30T20:24:32.254Z,9.88
2023-10-30T20:26:59.829Z,9.45
2023-10-30T20:29:27.561Z,8.80
2023-10-30T20:31:58.460Z,8.35
2023-10-30T20:34:26.776Z,8.05
2023-10-30T20:36:56.182Z,6.40
2023-10-30T20:39:24.589Z,5.28
2023-10-30T20:41:51.847Z,6.82
2023-10-30T20:44:19.348Z,5.50
2023-10-30T20:46:47.159Z,5.55
2023-10-30T20:49:15.301Z,4.45
2023-10-30T20:51:42.727Z,4.93
2023-10-30T20:54:10.125Z,4.88
2023-10-30T20:56:37.318Z,5.95
2023-10-30T20:59:04.661Z,4.47
2023-10-30T21:01:32.018Z,3.22
2023-10-30T21:03:59.301Z,4.30
2023-10-30T21:06:27.035Z,4.90
2023-10-30T21:08:54.289Z,3.30
2023-10-30T21:11:22.433Z,3.40
2023-10-30T21:13:49.702Z,4.68
2023-10-30T21:16:16.910Z,2.15
2023-10-30T21:18:44.698Z,2.60
2023-10-30T21:21:11.893Z,2.25
2023-10-30T21:23:39.059Z,6.30
2023-10-30T21:26:06.411Z,2.45
2023-10-30T21:28:33.700Z,5.63
2023-10-30T21:31:01.014Z,2.88
2023-10-30T21:33:28.181Z,4.10
2023-10-30T21:35:55.408Z,4.90
2023-10-30T21:38:23.929Z,4.88
2023-10-30T21:40:51.161Z,4.55
2023-10-30T21:43:18.383Z,2.45
2023-10-30T21:45:45.661Z,4.75
2023-10-30T21:48:13.075Z,3.13
2023-10-30T21:50:40.286Z,4.72
2023-10-30T21:53:07.663Z,3.88
2023-10-30T21:55:36.244Z,3.58
2023-10-30T21:58:03.874Z,4.78
2023-10-30T22:00:31.186Z,3.50
2023-10-30T22:02:58.454Z,4.68
2023-10-30T22:05:25.936Z,4.53
2023-10-30T22:07:53.299Z,2.10
2023-10-30T22:10:23.355Z,3.67
2023-10-30T22:12:50.477Z,3.42
2023-10-30T22:15:17.670Z,3.38
2023-10-30T22:17:45.042Z,2.65
2023-10-30T22:20:12.326Z,4.15
2023-10-30T22:22:39.539Z,2.97
2023-10-30T22:25:07.051Z,4.05
2023-10-30T22:27:34.278Z,4.30
2023-10-30T22:30:02.203Z,4.95
2023-10-30T22:32:29.543Z,4.63
2023-10-30T22:34:56.921Z,3.65
2023-10-30T22:37:24.226Z,4.10
2023-10-30T22:39:51.430Z,6.03
2023-10-30T22:42:18.826Z,4.78
2023-10-30T22:44:46.021Z,4.18
2023-10-30T22:47:13.259Z,7.30
2023-10-30T22:49:40.486Z,4.90
2023-10-30T22:52:07.713Z,3.08
2023-10-30T22:54:35.253Z,4.95
2023-10-30T22:57:02.516Z,3.13
2023-10-30T22:59:29.656Z,4.35
2023-10-30T23:01:57.227Z,5.63
2023-10-30T23:04:24.382Z,4.32
2023-10-30T23:06:51.635Z,4.65
2023-10-30T23:09:18.978Z,4.97
2023-10-30T23:11:49.444Z,3.17
2023-10-30T23:14:16.957Z,5.13
2023-10-30T23:16:44.314Z,5.13
2023-10-30T23:19:11.856Z,3.95
2023-10-30T23:21:39.293Z,1.85
2023-10-30T23:24:07.598Z,3.75
2023-10-30T23:26:34.847Z,3.33
2023-10-30T23:29:02.209Z,5.55
2023-10-30T23:31:29.528Z,3.08
2023-10-30T23:33:56.877Z,5.22
2023-10-30T23:36:24.810Z,3.40
2023-10-30T23:38:52.069Z,1.38
2023-10-30T23:41:19.332Z,2.15
2023-10-30T23:43:47.017Z,3.05
2023-10-30T23:46:14.232Z,2.08
2023-10-30T23:48:41.625Z,4.97
2023-10-30T23:51:09.410Z,2.88
2023-10-30T23:53:36.571Z,2.22
2023-10-30T23:56:04.081Z,5.47
2023-10-30T23:58:31.430Z,3.05
